ミラノ/マルペンサ の空港の天気 - METARとTAF

ミラノ・マルペンサ国際空港 ( LIMC / MXP ) - イタリア ミラノ
飛行場実況気象(Metar)
観測時間12/14 07:20 CET (12/14 06:20 UTC)
風向・風速北東 2m/s
視程10km以上
天気現象
なし
気温-3℃
湿度100%
気圧1015hPa
METARLIMC 140620Z 05003KT CAVOK M03/M03 Q1015 NOSIG
過去の天気等 Google飛行場航空写真 Wunderground天気予報

過去48時間のMETAR

飛行場予報(TAF)
発表時間: 12/14 06:00 CET (12/14 05:00 UTC)
予報対象時間: 14日7時 CET ~ 15日13時 CET
風向・風速不定 3m/s
視程10km以上
なし
TAF LIMC 140500Z 1406/1512 VRB05KT CAVOK